sensor_id;sensor_type;location;lat;lon;timestamp;P1;durP1;ratioP1;P2;durP2;ratioP2
1390;SDS011;690;51.454;7.194;2024-03-02T00:01:06;2.40;;;2.20;;
1390;SDS011;690;51.454;7.194;2024-03-02T00:03:33;3.17;;;2.50;;
1390;SDS011;690;51.454;7.194;2024-03-02T00:06:00;1.83;;;1.63;;
1390;SDS011;690;51.454;7.194;2024-03-02T00:08:30;2.40;;;2.10;;
1390;SDS011;690;51.454;7.194;2024-03-02T00:10:57;4.90;;;1.90;;
1390;SDS011;690;51.454;7.194;2024-03-02T00:13:25;3.30;;;2.00;;
1390;SDS011;690;51.454;7.194;2024-03-02T00:15:52;2.70;;;1.90;;
1390;SDS011;690;51.454;7.194;2024-03-02T00:18:30;3.50;;;1.70;;
1390;SDS011;690;51.454;7.194;2024-03-02T00:20:57;3.33;;;1.90;;
1390;SDS011;690;51.454;7.194;2024-03-02T00:23:27;1.87;;;1.77;;
1390;SDS011;690;51.454;7.194;2024-03-02T00:25:56;2.60;;;2.00;;
1390;SDS011;690;51.454;7.194;2024-03-02T00:28:23;3.30;;;2.17;;
1390;SDS011;690;51.454;7.194;2024-03-02T00:30:52;2.70;;;1.97;;
1390;SDS011;690;51.454;7.194;2024-03-02T00:33:23;2.80;;;1.60;;
1390;SDS011;690;51.454;7.194;2024-03-02T00:35:53;4.57;;;2.30;;
1390;SDS011;690;51.454;7.194;2024-03-02T00:38:20;1.63;;;1.40;;
1390;SDS011;690;51.454;7.194;2024-03-02T00:40:47;9.53;;;1.90;;
1390;SDS011;690;51.454;7.194;2024-03-02T00:43:31;2.90;;;1.93;;
1390;SDS011;690;51.454;7.194;2024-03-02T00:46:08;1.70;;;1.53;;
1390;SDS011;690;51.454;7.194;2024-03-02T00:48:38;2.07;;;1.83;;
1390;SDS011;690;51.454;7.194;2024-03-02T00:51:09;3.17;;;2.43;;
1390;SDS011;690;51.454;7.194;2024-03-02T00:53:36;2.57;;;2.00;;
1390;SDS011;690;51.454;7.194;2024-03-02T00:56:03;2.00;;;1.80;;
1390;SDS011;690;51.454;7.194;2024-03-02T00:58:35;2.27;;;2.00;;
1390;SDS011;690;51.454;7.194;2024-03-02T01:01:02;2.50;;;1.90;;
1390;SDS011;690;51.454;7.194;2024-03-02T01:03:29;2.30;;;2.10;;
1390;SDS011;690;51.454;7.194;2024-03-02T01:05:59;1.80;;;1.70;;
1390;SDS011;690;51.454;7.194;2024-03-02T01:08:25;2.87;;;1.70;;
1390;SDS011;690;51.454;7.194;2024-03-02T01:10:52;1.97;;;1.63;;
1390;SDS011;690;51.454;7.194;2024-03-02T01:13:21;2.80;;;1.90;;
1390;SDS011;690;51.454;7.194;2024-03-02T01:15:48;3.70;;;2.17;;
1390;SDS011;690;51.454;7.194;2024-03-02T01:18:15;2.37;;;1.80;;
1390;SDS011;690;51.454;7.194;2024-03-02T01:20:42;2.60;;;1.60;;
1390;SDS011;690;51.454;7.194;2024-03-02T01:23:10;2.03;;;1.40;;
1390;SDS011;690;51.454;7.194;2024-03-02T01:25:37;1.60;;;1.43;;
1390;SDS011;690;51.454;7.194;2024-03-02T01:28:05;3.60;;;2.00;;
1390;SDS011;690;51.454;7.194;2024-03-02T01:30:32;2.10;;;1.63;;
1390;SDS011;690;51.454;7.194;2024-03-02T01:33:00;5.37;;;1.43;;
1390;SDS011;690;51.454;7.194;2024-03-02T01:35:27;1.87;;;1.70;;
1390;SDS011;690;51.454;7.194;2024-03-02T01:37:54;3.60;;;1.53;;
1390;SDS011;690;51.454;7.194;2024-03-02T01:40:22;1.87;;;1.67;;
1390;SDS011;690;51.454;7.194;2024-03-02T01:42:51;3.30;;;1.70;;
1390;SDS011;690;51.454;7.194;2024-03-02T01:45:19;1.33;;;1.20;;
1390;SDS011;690;51.454;7.194;2024-03-02T01:47:46;1.40;;;1.30;;
1390;SDS011;690;51.454;7.194;2024-03-02T01:50:13;2.00;;;1.90;;
1390;SDS011;690;51.454;7.194;2024-03-02T01:52:40;2.20;;;1.93;;
1390;SDS011;690;51.454;7.194;2024-03-02T01:55:09;2.43;;;1.50;;
1390;SDS011;690;51.454;7.194;2024-03-02T01:57:37;2.33;;;1.30;;
1390;SDS011;690;51.454;7.194;2024-03-02T02:00:05;1.60;;;1.50;;
1390;SDS011;690;51.454;7.194;2024-03-02T02:02:35;3.63;;;1.70;;
1390;SDS011;690;51.454;7.194;2024-03-02T02:05:02;1.97;;;1.70;;
1390;SDS011;690;51.454;7.194;2024-03-02T02:07:29;2.77;;;1.40;;
1390;SDS011;690;51.454;7.194;2024-03-02T02:09:56;3.70;;;1.63;;
1390;SDS011;690;51.454;7.194;2024-03-02T02:12:24;1.90;;;1.50;;
1390;SDS011;690;51.454;7.194;2024-03-02T02:14:52;3.00;;;1.97;;
1390;SDS011;690;51.454;7.194;2024-03-02T02:17:19;2.03;;;1.40;;
1390;SDS011;690;51.454;7.194;2024-03-02T02:19:46;3.83;;;1.43;;
1390;SDS011;690;51.454;7.194;2024-03-02T02:22:15;2.60;;;1.40;;
1390;SDS011;690;51.454;7.194;2024-03-02T02:24:42;1.90;;;1.80;;
1390;SDS011;690;51.454;7.194;2024-03-02T02:27:09;2.07;;;1.50;;
1390;SDS011;690;51.454;7.194;2024-03-02T02:29:37;1.93;;;1.40;;
1390;SDS011;690;51.454;7.194;2024-03-02T02:32:05;2.40;;;1.57;;
1390;SDS011;690;51.454;7.194;2024-03-02T02:34:32;2.27;;;1.40;;
1390;SDS011;690;51.454;7.194;2024-03-02T02:36:59;2.00;;;1.40;;
1390;SDS011;690;51.454;7.194;2024-03-02T02:39:27;1.87;;;1.47;;
1390;SDS011;690;51.454;7.194;2024-03-02T02:41:54;1.90;;;1.60;;
1390;SDS011;690;51.454;7.194;2024-03-02T02:44:21;1.63;;;1.53;;
1390;SDS011;690;51.454;7.194;2024-03-02T02:46:48;1.67;;;1.50;;
1390;SDS011;690;51.454;7.194;2024-03-02T02:49:15;1.70;;;1.43;;
1390;SDS011;690;51.454;7.194;2024-03-02T02:51:42;3.30;;;1.70;;
1390;SDS011;690;51.454;7.194;2024-03-02T02:54:09;2.50;;;1.53;;
1390;SDS011;690;51.454;7.194;2024-03-02T02:56:37;3.40;;;1.40;;
1390;SDS011;690;51.454;7.194;2024-03-02T02:59:04;2.80;;;1.33;;
1390;SDS011;690;51.454;7.194;2024-03-02T03:01:31;2.20;;;1.50;;
1390;SDS011;690;51.454;7.194;2024-03-02T03:03:57;2.53;;;1.70;;
1390;SDS011;690;51.454;7.194;2024-03-02T03:06:24;1.80;;;1.40;;
1390;SDS011;690;51.454;7.194;2024-03-02T03:08:51;2.30;;;1.40;;
1390;SDS011;690;51.454;7.194;2024-03-02T03:11:18;2.77;;;1.47;;
1390;SDS011;690;51.454;7.194;2024-03-02T03:13:46;1.87;;;1.40;;
1390;SDS011;690;51.454;7.194;2024-03-02T03:16:13;1.60;;;1.50;;
1390;SDS011;690;51.454;7.194;2024-03-02T03:18:40;2.60;;;1.23;;
1390;SDS011;690;51.454;7.194;2024-03-02T03:21:07;2.00;;;1.33;;
1390;SDS011;690;51.454;7.194;2024-03-02T03:23:34;1.17;;;1.13;;
1390;SDS011;690;51.454;7.194;2024-03-02T03:26:01;1.10;;;1.00;;
1390;SDS011;690;51.454;7.194;2024-03-02T03:28:28;4.87;;;1.50;;
1390;SDS011;690;51.454;7.194;2024-03-02T03:30:56;3.30;;;2.03;;
1390;SDS011;690;51.454;7.194;2024-03-02T03:33:23;1.60;;;1.20;;
1390;SDS011;690;51.454;7.194;2024-03-02T03:35:50;2.63;;;1.30;;
1390;SDS011;690;51.454;7.194;2024-03-02T03:38:18;2.23;;;1.47;;
1390;SDS011;690;51.454;7.194;2024-03-02T03:40:44;1.40;;;1.23;;
1390;SDS011;690;51.454;7.194;2024-03-02T03:43:12;1.50;;;0.90;;
1390;SDS011;690;51.454;7.194;2024-03-02T03:45:39;2.83;;;1.47;;
1390;SDS011;690;51.454;7.194;2024-03-02T03:48:08;2.13;;;1.17;;
1390;SDS011;690;51.454;7.194;2024-03-02T03:50:35;1.50;;;0.90;;
1390;SDS011;690;51.454;7.194;2024-03-02T03:53:03;2.00;;;1.07;;
1390;SDS011;690;51.454;7.194;2024-03-02T03:55:30;1.53;;;1.10;;
1390;SDS011;690;51.454;7.194;2024-03-02T03:57:57;1.93;;;1.20;;
1390;SDS011;690;51.454;7.194;2024-03-02T04:00:24;3.60;;;1.30;;
1390;SDS011;690;51.454;7.194;2024-03-02T04:02:51;1.83;;;1.23;;
1390;SDS011;690;51.454;7.194;2024-03-02T04:05:19;1.07;;;0.93;;
1390;SDS011;690;51.454;7.194;2024-03-02T04:07:46;2.80;;;1.17;;
1390;SDS011;690;51.454;7.194;2024-03-02T04:10:13;1.20;;;1.10;;
1390;SDS011;690;51.454;7.194;2024-03-02T04:12:41;1.63;;;1.07;;
1390;SDS011;690;51.454;7.194;2024-03-02T04:15:08;2.07;;;1.60;;
1390;SDS011;690;51.454;7.194;2024-03-02T04:17:35;1.60;;;1.00;;
1390;SDS011;690;51.454;7.194;2024-03-02T04:20:02;4.13;;;1.20;;
1390;SDS011;690;51.454;7.194;2024-03-02T04:22:33;1.53;;;1.10;;
1390;SDS011;690;51.454;7.194;2024-03-02T04:25:00;4.00;;;1.20;;
1390;SDS011;690;51.454;7.194;2024-03-02T04:27:29;3.90;;;1.13;;
1390;SDS011;690;51.454;7.194;2024-03-02T04:29:57;1.63;;;1.33;;
1390;SDS011;690;51.454;7.194;2024-03-02T04:32:25;1.57;;;1.47;;
1390;SDS011;690;51.454;7.194;2024-03-02T04:34:52;1.20;;;0.87;;
1390;SDS011;690;51.454;7.194;2024-03-02T04:37:19;2.40;;;1.20;;
1390;SDS011;690;51.454;7.194;2024-03-02T04:39:47;1.30;;;1.00;;
1390;SDS011;690;51.454;7.194;2024-03-02T04:42:14;2.50;;;1.20;;
1390;SDS011;690;51.454;7.194;2024-03-02T04:44:41;1.77;;;1.20;;
1390;SDS011;690;51.454;7.194;2024-03-02T04:47:07;1.17;;;1.03;;
1390;SDS011;690;51.454;7.194;2024-03-02T04:49:34;3.83;;;1.50;;
1390;SDS011;690;51.454;7.194;2024-03-02T04:52:01;2.20;;;1.40;;
1390;SDS011;690;51.454;7.194;2024-03-02T04:54:28;1.20;;;1.10;;
1390;SDS011;690;51.454;7.194;2024-03-02T04:56:57;1.63;;;1.20;;
1390;SDS011;690;51.454;7.194;2024-03-02T04:59:23;1.63;;;1.17;;
1390;SDS011;690;51.454;7.194;2024-03-02T05:01:50;1.40;;;1.20;;
1390;SDS011;690;51.454;7.194;2024-03-02T05:04:17;1.63;;;1.17;;
1390;SDS011;690;51.454;7.194;2024-03-02T05:06:44;1.20;;;0.97;;
1390;SDS011;690;51.454;7.194;2024-03-02T05:09:17;2.40;;;1.40;;
1390;SDS011;690;51.454;7.194;2024-03-02T05:11:44;1.77;;;1.50;;
1390;SDS011;690;51.454;7.194;2024-03-02T05:14:38;1.63;;;1.03;;
1390;SDS011;690;51.454;7.194;2024-03-02T05:17:05;3.53;;;1.30;;
1390;SDS011;690;51.454;7.194;2024-03-02T05:19:32;2.53;;;1.53;;
1390;SDS011;690;51.454;7.194;2024-03-02T05:21:58;2.73;;;1.30;;
1390;SDS011;690;51.454;7.194;2024-03-02T05:24:25;5.83;;;1.70;;
1390;SDS011;690;51.454;7.194;2024-03-02T05:26:53;2.13;;;1.33;;
1390;SDS011;690;51.454;7.194;2024-03-02T05:29:20;1.90;;;1.30;;
1390;SDS011;690;51.454;7.194;2024-03-02T05:31:48;2.30;;;1.30;;
1390;SDS011;690;51.454;7.194;2024-03-02T05:34:15;1.73;;;1.63;;
1390;SDS011;690;51.454;7.194;2024-03-02T05:36:43;5.13;;;1.20;;
1390;SDS011;690;51.454;7.194;2024-03-02T05:39:10;2.90;;;1.43;;
1390;SDS011;690;51.454;7.194;2024-03-02T05:41:37;1.60;;;1.43;;
1390;SDS011;690;51.454;7.194;2024-03-02T05:44:04;1.60;;;1.40;;
1390;SDS011;690;51.454;7.194;2024-03-02T05:46:31;3.03;;;1.77;;
1390;SDS011;690;51.454;7.194;2024-03-02T05:48:59;1.77;;;1.60;;
1390;SDS011;690;51.454;7.194;2024-03-02T05:51:26;2.33;;;1.50;;
1390;SDS011;690;51.454;7.194;2024-03-02T05:53:53;1.43;;;1.30;;
1390;SDS011;690;51.454;7.194;2024-03-02T05:56:20;3.17;;;1.87;;
1390;SDS011;690;51.454;7.194;2024-03-02T05:58:47;2.10;;;1.60;;
1390;SDS011;690;51.454;7.194;2024-03-02T06:01:26;2.87;;;1.53;;
1390;SDS011;690;51.454;7.194;2024-03-02T06:03:54;5.50;;;2.17;;
1390;SDS011;690;51.454;7.194;2024-03-02T06:06:23;3.00;;;1.80;;
1390;SDS011;690;51.454;7.194;2024-03-02T06:08:50;2.40;;;1.80;;
1390;SDS011;690;51.454;7.194;2024-03-02T06:11:17;2.30;;;1.63;;
1390;SDS011;690;51.454;7.194;2024-03-02T06:13:45;3.00;;;2.00;;
1390;SDS011;690;51.454;7.194;2024-03-02T06:16:12;2.63;;;1.87;;
1390;SDS011;690;51.454;7.194;2024-03-02T06:18:39;4.70;;;2.27;;
1390;SDS011;690;51.454;7.194;2024-03-02T06:21:05;2.27;;;2.07;;
1390;SDS011;690;51.454;7.194;2024-03-02T06:23:34;2.73;;;2.00;;
1390;SDS011;690;51.454;7.194;2024-03-02T06:26:01;3.40;;;2.60;;
1390;SDS011;690;51.454;7.194;2024-03-02T06:28:28;2.20;;;2.00;;
1390;SDS011;690;51.454;7.194;2024-03-02T06:30:55;2.90;;;2.47;;
1390;SDS011;690;51.454;7.194;2024-03-02T06:33:22;3.00;;;2.43;;
1390;SDS011;690;51.454;7.194;2024-03-02T06:35:49;3.10;;;2.17;;
1390;SDS011;690;51.454;7.194;2024-03-02T06:38:16;6.20;;;2.37;;
1390;SDS011;690;51.454;7.194;2024-03-02T06:40:44;4.63;;;2.47;;
1390;SDS011;690;51.454;7.194;2024-03-02T06:43:11;4.33;;;3.07;;
1390;SDS011;690;51.454;7.194;2024-03-02T06:45:38;3.97;;;2.97;;
1390;SDS011;690;51.454;7.194;2024-03-02T06:48:05;4.47;;;2.93;;
1390;SDS011;690;51.454;7.194;2024-03-02T06:50:33;3.23;;;2.30;;
1390;SDS011;690;51.454;7.194;2024-03-02T06:52:59;3.17;;;2.30;;
1390;SDS011;690;51.454;7.194;2024-03-02T06:55:29;4.27;;;3.30;;
1390;SDS011;690;51.454;7.194;2024-03-02T06:57:57;3.00;;;2.30;;
1390;SDS011;690;51.454;7.194;2024-03-02T07:00:24;3.03;;;2.70;;
1390;SDS011;690;51.454;7.194;2024-03-02T07:02:51;3.60;;;2.50;;
1390;SDS011;690;51.454;7.194;2024-03-02T07:05:20;2.67;;;2.37;;
1390;SDS011;690;51.454;7.194;2024-03-02T07:07:48;2.90;;;2.43;;
1390;SDS011;690;51.454;7.194;2024-03-02T07:10:15;4.33;;;2.53;;
1390;SDS011;690;51.454;7.194;2024-03-02T07:12:42;2.93;;;2.03;;
1390;SDS011;690;51.454;7.194;2024-03-02T07:15:11;3.23;;;2.80;;
1390;SDS011;690;51.454;7.194;2024-03-02T07:17:54;3.03;;;2.57;;
1390;SDS011;690;51.454;7.194;2024-03-02T07:20:21;4.20;;;2.90;;
1390;SDS011;690;51.454;7.194;2024-03-02T07:22:47;5.20;;;2.30;;
1390;SDS011;690;51.454;7.194;2024-03-02T07:25:14;4.60;;;3.27;;
1390;SDS011;690;51.454;7.194;2024-03-02T07:27:41;5.07;;;2.70;;
1390;SDS011;690;51.454;7.194;2024-03-02T07:30:13;4.63;;;2.57;;
1390;SDS011;690;51.454;7.194;2024-03-02T07:32:41;3.20;;;2.20;;
1390;SDS011;690;51.454;7.194;2024-03-02T07:35:11;3.57;;;2.70;;
1390;SDS011;690;51.454;7.194;2024-03-02T07:37:38;5.00;;;2.10;;
1390;SDS011;690;51.454;7.194;2024-03-02T07:40:05;3.70;;;2.70;;
1390;SDS011;690;51.454;7.194;2024-03-02T07:42:36;4.93;;;2.67;;
1390;SDS011;690;51.454;7.194;2024-03-02T07:45:04;3.80;;;2.93;;
1390;SDS011;690;51.454;7.194;2024-03-02T07:47:33;3.70;;;2.30;;
1390;SDS011;690;51.454;7.194;2024-03-02T07:50:00;3.57;;;2.73;;
1390;SDS011;690;51.454;7.194;2024-03-02T07:52:27;3.60;;;2.67;;
1390;SDS011;690;51.454;7.194;2024-03-02T07:54:55;3.30;;;2.50;;
1390;SDS011;690;51.454;7.194;2024-03-02T07:57:21;3.47;;;2.73;;
1390;SDS011;690;51.454;7.194;2024-03-02T07:59:48;3.90;;;3.00;;
1390;SDS011;690;51.454;7.194;2024-03-02T08:02:15;5.47;;;2.70;;
1390;SDS011;690;51.454;7.194;2024-03-02T08:04:44;3.90;;;2.87;;
1390;SDS011;690;51.454;7.194;2024-03-02T08:07:12;4.73;;;2.27;;
1390;SDS011;690;51.454;7.194;2024-03-02T08:09:39;4.90;;;2.53;;
1390;SDS011;690;51.454;7.194;2024-03-02T08:12:06;3.60;;;2.70;;
1390;SDS011;690;51.454;7.194;2024-03-02T08:14:33;2.50;;;2.20;;
1390;SDS011;690;51.454;7.194;2024-03-02T08:17:00;4.60;;;2.50;;
1390;SDS011;690;51.454;7.194;2024-03-02T08:19:27;2.97;;;2.60;;
1390;SDS011;690;51.454;7.194;2024-03-02T08:21:56;3.80;;;2.57;;
1390;SDS011;690;51.454;7.194;2024-03-02T08:24:24;3.00;;;2.10;;
1390;SDS011;690;51.454;7.194;2024-03-02T08:26:51;4.33;;;2.43;;
1390;SDS011;690;51.454;7.194;2024-03-02T08:29:18;3.00;;;2.43;;
1390;SDS011;690;51.454;7.194;2024-03-02T08:31:45;2.70;;;2.17;;
1390;SDS011;690;51.454;7.194;2024-03-02T08:34:12;3.37;;;1.90;;
1390;SDS011;690;51.454;7.194;2024-03-02T08:36:39;2.60;;;2.03;;
1390;SDS011;690;51.454;7.194;2024-03-02T08:39:10;3.47;;;1.80;;
1390;SDS011;690;51.454;7.194;2024-03-02T08:41:40;2.53;;;1.83;;
1390;SDS011;690;51.454;7.194;2024-03-02T08:44:08;2.60;;;1.93;;
1390;SDS011;690;51.454;7.194;2024-03-02T08:46:35;3.13;;;1.90;;
1390;SDS011;690;51.454;7.194;2024-03-02T08:49:02;2.80;;;2.00;;
1390;SDS011;690;51.454;7.194;2024-03-02T08:51:30;4.93;;;1.83;;
1390;SDS011;690;51.454;7.194;2024-03-02T08:53:57;4.23;;;1.80;;
1390;SDS011;690;51.454;7.194;2024-03-02T08:56:25;2.43;;;1.70;;
1390;SDS011;690;51.454;7.194;2024-03-02T08:58:52;2.00;;;1.80;;
1390;SDS011;690;51.454;7.194;2024-03-02T09:01:19;4.83;;;1.60;;
1390;SDS011;690;51.454;7.194;2024-03-02T09:03:46;3.87;;;1.90;;
1390;SDS011;690;51.454;7.194;2024-03-02T09:06:14;2.53;;;2.33;;
1390;SDS011;690;51.454;7.194;2024-03-02T09:08:42;3.67;;;2.00;;
1390;SDS011;690;51.454;7.194;2024-03-02T09:11:09;2.27;;;1.50;;
1390;SDS011;690;51.454;7.194;2024-03-02T09:13:38;3.50;;;1.47;;
1390;SDS011;690;51.454;7.194;2024-03-02T09:16:06;2.00;;;1.57;;
1390;SDS011;690;51.454;7.194;2024-03-02T09:18:36;4.07;;;1.93;;
1390;SDS011;690;51.454;7.194;2024-03-02T09:21:03;5.40;;;1.50;;
1390;SDS011;690;51.454;7.194;2024-03-02T09:23:30;2.80;;;1.63;;
1390;SDS011;690;51.454;7.194;2024-03-02T09:25:57;1.90;;;1.57;;
1390;SDS011;690;51.454;7.194;2024-03-02T09:28:24;2.20;;;1.63;;
1390;SDS011;690;51.454;7.194;2024-03-02T09:30:53;3.90;;;1.63;;
1390;SDS011;690;51.454;7.194;2024-03-02T09:33:20;3.53;;;1.53;;
1390;SDS011;690;51.454;7.194;2024-03-02T09:35:47;2.33;;;1.80;;
1390;SDS011;690;51.454;7.194;2024-03-02T09:38:14;13.47;;;1.83;;
1390;SDS011;690;51.454;7.194;2024-03-02T09:40:41;3.10;;;1.57;;
1390;SDS011;690;51.454;7.194;2024-03-02T09:43:09;3.63;;;1.73;;
1390;SDS011;690;51.454;7.194;2024-03-02T09:45:36;2.07;;;1.60;;
1390;SDS011;690;51.454;7.194;2024-03-02T09:48:05;1.93;;;1.80;;
1390;SDS011;690;51.454;7.194;2024-03-02T09:50:33;2.63;;;1.73;;
1390;SDS011;690;51.454;7.194;2024-03-02T09:53:00;2.13;;;1.50;;
1390;SDS011;690;51.454;7.194;2024-03-02T09:55:27;2.80;;;1.60;;
1390;SDS011;690;51.454;7.194;2024-03-02T09:57:54;3.23;;;1.37;;
1390;SDS011;690;51.454;7.194;2024-03-02T10:00:21;2.57;;;1.33;;
1390;SDS011;690;51.454;7.194;2024-03-02T10:02:48;2.27;;;1.20;;
1390;SDS011;690;51.454;7.194;2024-03-02T10:05:24;2.33;;;1.43;;
1390;SDS011;690;51.454;7.194;2024-03-02T10:07:58;2.67;;;1.17;;
1390;SDS011;690;51.454;7.194;2024-03-02T10:10:26;2.60;;;1.30;;
1390;SDS011;690;51.454;7.194;2024-03-02T10:13:03;1.60;;;1.30;;
1390;SDS011;690;51.454;7.194;2024-03-02T10:15:31;1.97;;;1.47;;
1390;SDS011;690;51.454;7.194;2024-03-02T10:17:58;2.30;;;1.30;;
1390;SDS011;690;51.454;7.194;2024-03-02T10:20:27;1.30;;;1.00;;
1390;SDS011;690;51.454;7.194;2024-03-02T10:22:55;1.03;;;0.80;;
1390;SDS011;690;51.454;7.194;2024-03-02T10:25:28;1.60;;;1.00;;
1390;SDS011;690;51.454;7.194;2024-03-02T10:27:57;2.87;;;0.80;;
1390;SDS011;690;51.454;7.194;2024-03-02T10:30:24;1.70;;;1.20;;
1390;SDS011;690;51.454;7.194;2024-03-02T10:32:52;2.97;;;1.17;;
1390;SDS011;690;51.454;7.194;2024-03-02T10:35:20;1.20;;;0.80;;
1390;SDS011;690;51.454;7.194;2024-03-02T10:37:49;1.90;;;1.30;;
1390;SDS011;690;51.454;7.194;2024-03-02T10:40:17;2.60;;;1.00;;
1390;SDS011;690;51.454;7.194;2024-03-02T10:42:47;2.10;;;1.27;;
1390;SDS011;690;51.454;7.194;2024-03-02T10:45:16;2.27;;;1.00;;
1390;SDS011;690;51.454;7.194;2024-03-02T10:47:43;3.30;;;1.27;;
1390;SDS011;690;51.454;7.194;2024-03-02T10:50:10;1.70;;;0.90;;
1390;SDS011;690;51.454;7.194;2024-03-02T10:52:36;2.27;;;1.10;;
1390;SDS011;690;51.454;7.194;2024-03-02T10:55:06;1.47;;;1.00;;
1390;SDS011;690;51.454;7.194;2024-03-02T10:57:38;1.47;;;1.00;;
1390;SDS011;690;51.454;7.194;2024-03-02T11:00:11;2.50;;;1.10;;
1390;SDS011;690;51.454;7.194;2024-03-02T11:02:42;1.00;;;0.90;;
1390;SDS011;690;51.454;7.194;2024-03-02T11:05:13;2.17;;;1.00;;
1390;SDS011;690;51.454;7.194;2024-03-02T11:07:44;2.10;;;1.00;;
1390;SDS011;690;51.454;7.194;2024-03-02T11:10:13;1.50;;;1.10;;
1390;SDS011;690;51.454;7.194;2024-03-02T11:12:43;1.53;;;0.93;;
1390;SDS011;690;51.454;7.194;2024-03-02T11:15:19;2.20;;;1.00;;
1390;SDS011;690;51.454;7.194;2024-03-02T11:17:51;1.50;;;1.03;;
1390;SDS011;690;51.454;7.194;2024-03-02T11:20:19;1.67;;;1.10;;
1390;SDS011;690;51.454;7.194;2024-03-02T11:22:46;2.70;;;1.10;;
1390;SDS011;690;51.454;7.194;2024-03-02T11:25:25;4.83;;;1.10;;
1390;SDS011;690;51.454;7.194;2024-03-02T11:27:59;1.73;;;1.03;;
1390;SDS011;690;51.454;7.194;2024-03-02T11:33:22;0.83;;;0.73;;
1390;SDS011;690;51.454;7.194;2024-03-02T11:35:52;2.70;;;1.00;;
1390;SDS011;690;51.454;7.194;2024-03-02T11:38:19;5.93;;;1.77;;
1390;SDS011;690;51.454;7.194;2024-03-02T11:40:47;2.40;;;1.20;;
1390;SDS011;690;51.454;7.194;2024-03-02T11:43:15;1.73;;;0.90;;
1390;SDS011;690;51.454;7.194;2024-03-02T11:45:43;4.60;;;1.00;;
1390;SDS011;690;51.454;7.194;2024-03-02T11:48:11;2.50;;;1.07;;
1390;SDS011;690;51.454;7.194;2024-03-02T11:50:40;2.27;;;1.20;;
1390;SDS011;690;51.454;7.194;2024-03-02T11:53:14;2.50;;;1.00;;
1390;SDS011;690;51.454;7.194;2024-03-02T11:55:42;2.20;;;0.90;;
1390;SDS011;690;51.454;7.194;2024-03-02T11:58:12;1.50;;;0.70;;
1390;SDS011;690;51.454;7.194;2024-03-02T12:00:40;1.00;;;0.70;;
1390;SDS011;690;51.454;7.194;2024-03-02T12:03:07;3.50;;;1.10;;
1390;SDS011;690;51.454;7.194;2024-03-02T12:05:35;4.00;;;1.03;;
1390;SDS011;690;51.454;7.194;2024-03-02T12:08:03;2.67;;;1.40;;
1390;SDS011;690;51.454;7.194;2024-03-02T12:10:31;1.30;;;1.03;;
1390;SDS011;690;51.454;7.194;2024-03-02T12:12:59;1.43;;;1.33;;
1390;SDS011;690;51.454;7.194;2024-03-02T12:15:30;2.03;;;1.00;;
1390;SDS011;690;51.454;7.194;2024-03-02T12:17:58;1.40;;;1.03;;
1390;SDS011;690;51.454;7.194;2024-03-02T12:20:26;1.47;;;1.00;;
1390;SDS011;690;51.454;7.194;2024-03-02T12:22:55;1.40;;;0.87;;
1390;SDS011;690;51.454;7.194;2024-03-02T12:25:25;1.90;;;0.93;;
1390;SDS011;690;51.454;7.194;2024-03-02T12:27:53;1.53;;;0.83;;
1390;SDS011;690;51.454;7.194;2024-03-02T12:30:22;1.43;;;1.00;;
1390;SDS011;690;51.454;7.194;2024-03-02T12:32:50;0.97;;;0.93;;
1390;SDS011;690;51.454;7.194;2024-03-02T12:35:17;2.87;;;1.43;;
1390;SDS011;690;51.454;7.194;2024-03-02T12:37:44;1.10;;;0.90;;
1390;SDS011;690;51.454;7.194;2024-03-02T12:40:12;1.10;;;0.80;;
1390;SDS011;690;51.454;7.194;2024-03-02T12:42:40;1.10;;;1.00;;
1390;SDS011;690;51.454;7.194;2024-03-02T12:45:08;1.23;;;1.00;;
1390;SDS011;690;51.454;7.194;2024-03-02T12:47:35;1.57;;;1.40;;
1390;SDS011;690;51.454;7.194;2024-03-02T12:50:04;1.90;;;1.27;;
1390;SDS011;690;51.454;7.194;2024-03-02T12:52:32;2.53;;;1.40;;
1390;SDS011;690;51.454;7.194;2024-03-02T12:55:00;1.00;;;0.80;;
1390;SDS011;690;51.454;7.194;2024-03-02T12:57:29;3.40;;;1.30;;
1390;SDS011;690;51.454;7.194;2024-03-02T12:59:57;2.60;;;2.20;;
1390;SDS011;690;51.454;7.194;2024-03-02T13:02:27;4.87;;;3.17;;
1390;SDS011;690;51.454;7.194;2024-03-02T13:04:55;2.70;;;1.70;;
1390;SDS011;690;51.454;7.194;2024-03-02T13:07:25;1.60;;;1.07;;
1390;SDS011;690;51.454;7.194;2024-03-02T13:09:52;1.70;;;1.20;;
1390;SDS011;690;51.454;7.194;2024-03-02T13:12:21;0.90;;;0.50;;
1390;SDS011;690;51.454;7.194;2024-03-02T13:14:49;0.80;;;0.60;;
1390;SDS011;690;51.454;7.194;2024-03-02T13:17:17;1.03;;;0.70;;
1390;SDS011;690;51.454;7.194;2024-03-02T13:19:51;1.27;;;0.70;;
1390;SDS011;690;51.454;7.194;2024-03-02T13:22:19;1.83;;;0.60;;
1390;SDS011;690;51.454;7.194;2024-03-02T13:24:47;2.03;;;0.70;;
1390;SDS011;690;51.454;7.194;2024-03-02T13:27:14;0.90;;;0.80;;
1390;SDS011;690;51.454;7.194;2024-03-02T13:29:44;0.90;;;0.90;;
1390;SDS011;690;51.454;7.194;2024-03-02T13:32:11;2.23;;;0.80;;
1390;SDS011;690;51.454;7.194;2024-03-02T13:34:38;1.27;;;0.90;;
1390;SDS011;690;51.454;7.194;2024-03-02T13:37:06;1.47;;;0.73;;
1390;SDS011;690;51.454;7.194;2024-03-02T13:39:33;1.77;;;0.80;;
1390;SDS011;690;51.454;7.194;2024-03-02T13:42:06;0.80;;;0.60;;
1390;SDS011;690;51.454;7.194;2024-03-02T13:44:34;0.57;;;0.57;;
1390;SDS011;690;51.454;7.194;2024-03-02T13:47:02;1.10;;;0.80;;
1390;SDS011;690;51.454;7.194;2024-03-02T13:49:29;0.60;;;0.50;;
1390;SDS011;690;51.454;7.194;2024-03-02T13:52:01;1.00;;;0.73;;
1390;SDS011;690;51.454;7.194;2024-03-02T13:54:36;0.80;;;0.70;;
1390;SDS011;690;51.454;7.194;2024-03-02T13:57:04;0.70;;;0.50;;
1390;SDS011;690;51.454;7.194;2024-03-02T13:59:33;1.30;;;0.70;;
1390;SDS011;690;51.454;7.194;2024-03-02T14:02:01;0.77;;;0.57;;
1390;SDS011;690;51.454;7.194;2024-03-02T14:04:29;0.90;;;0.70;;
1390;SDS011;690;51.454;7.194;2024-03-02T14:06:56;1.00;;;0.50;;
1390;SDS011;690;51.454;7.194;2024-03-02T14:09:23;0.70;;;0.50;;
1390;SDS011;690;51.454;7.194;2024-03-02T14:11:51;2.23;;;1.40;;
1390;SDS011;690;51.454;7.194;2024-03-02T14:14:19;1.17;;;0.70;;
1390;SDS011;690;51.454;7.194;2024-03-02T14:16:46;1.03;;;0.90;;
1390;SDS011;690;51.454;7.194;2024-03-02T14:19:13;1.37;;;0.53;;
1390;SDS011;690;51.454;7.194;2024-03-02T14:21:40;1.23;;;0.50;;
1390;SDS011;690;51.454;7.194;2024-03-02T14:24:07;1.00;;;0.73;;
1390;SDS011;690;51.454;7.194;2024-03-02T14:26:34;1.30;;;0.53;;
1390;SDS011;690;51.454;7.194;2024-03-02T14:29:02;0.60;;;0.40;;
1390;SDS011;690;51.454;7.194;2024-03-02T14:31:30;2.40;;;0.97;;
1390;SDS011;690;51.454;7.194;2024-03-02T14:33:57;1.20;;;0.67;;
1390;SDS011;690;51.454;7.194;2024-03-02T14:36:25;0.97;;;0.70;;
1390;SDS011;690;51.454;7.194;2024-03-02T14:38:54;0.60;;;0.60;;
1390;SDS011;690;51.454;7.194;2024-03-02T14:41:21;1.10;;;0.90;;
1390;SDS011;690;51.454;7.194;2024-03-02T14:43:49;1.37;;;0.90;;
1390;SDS011;690;51.454;7.194;2024-03-02T14:46:16;1.03;;;0.93;;
1390;SDS011;690;51.454;7.194;2024-03-02T14:48:45;1.73;;;0.87;;
1390;SDS011;690;51.454;7.194;2024-03-02T14:51:12;1.37;;;0.90;;
1390;SDS011;690;51.454;7.194;2024-03-02T14:53:40;1.47;;;1.00;;
1390;SDS011;690;51.454;7.194;2024-03-02T14:56:06;1.83;;;1.37;;
1390;SDS011;690;51.454;7.194;2024-03-02T14:58:33;2.67;;;1.53;;
1390;SDS011;690;51.454;7.194;2024-03-02T15:01:02;3.50;;;1.30;;
1390;SDS011;690;51.454;7.194;2024-03-02T15:03:30;3.70;;;1.50;;
1390;SDS011;690;51.454;7.194;2024-03-02T15:05:59;3.20;;;1.10;;
1390;SDS011;690;51.454;7.194;2024-03-02T15:08:26;1.40;;;1.20;;
1390;SDS011;690;51.454;7.194;2024-03-02T15:10:52;2.93;;;1.30;;
1390;SDS011;690;51.454;7.194;2024-03-02T15:13:22;2.20;;;1.37;;
1390;SDS011;690;51.454;7.194;2024-03-02T15:15:50;2.83;;;1.27;;
1390;SDS011;690;51.454;7.194;2024-03-02T15:18:17;3.23;;;1.93;;
1390;SDS011;690;51.454;7.194;2024-03-02T15:20:44;1.37;;;1.07;;
1390;SDS011;690;51.454;7.194;2024-03-02T15:23:12;3.43;;;1.60;;
1390;SDS011;690;51.454;7.194;2024-03-02T15:25:39;1.83;;;1.57;;
1390;SDS011;690;51.454;7.194;2024-03-02T15:28:06;1.47;;;1.20;;
1390;SDS011;690;51.454;7.194;2024-03-02T15:30:33;2.10;;;1.67;;
1390;SDS011;690;51.454;7.194;2024-03-02T15:33:01;2.20;;;1.47;;
1390;SDS011;690;51.454;7.194;2024-03-02T15:35:28;3.00;;;2.40;;
1390;SDS011;690;51.454;7.194;2024-03-02T15:37:55;1.20;;;1.10;;